首页
METAR-TAF:

METAR-TAF

机场 :

珀斯機場

珀斯, 澳大利亚

纬度: 31-56S, 经度: 115-57E, 海拔: 20米

当前天气观测

该预报发布于49分钟前的17:00 UTC
风速7节,风向
温度 11°C
湿度 100%
气压 1014 hPa
能见度10公里或以上
散云层高于2800英尺
多云层高于6000英尺
附近有阵雨,

METAR: YPPH 291700Z 01007KT 9999 VCSH SCT028 BKN060 11/11 Q1014 RF00.6////./

时间: 01:49 (17:49 UTC)

预报

该预报发布于3小时和16分钟前的14:33 UTC
预报有效从29日的 15点(UTC)到 30日的 18点(UTC)
风速8节,风向东北
能見度: 4000
散云层高于4000英尺
多云层高于2500英尺
散云层高于1200英尺
多云层高于2500英尺
小阵雨, 阵雨, 阵雨,

TAF: YPPH 291433Z 2915/3018 04008KT 9999 -SHRA SCT040 INTER 2915/2921 5000 SHRA BKN025 INTER 2921/3018 4000 SHRA SCT012 BKN025

超过4000个机场的气象观测和天气预报(METAR&TAF报告)。

可查询的气象台以黄色和红色小点在地图上表示。

将鼠标移到小点上方,可查看气象台名称。

然后点击查看天气观测和预报。

如需切换地图:点击带黑十字的绿色按钮放大地图;点击带横线的绿色按钮缩小地图;或者点击绿色箭头查看邻近地区的地图。


METAR-TAF: